Time;durP1;ratioP1;P1;durP2;ratioP2;P2;SDS_P1;SDS_P2;PMS_P1;PMS_P2;Temp;Humidity;BMP_temperature;BMP_pressure;BME280_temperature;BME280_humidity;BME280_pressure;Samples;Min_cycle;Max_cycle;Signal;HPM_P1;HPM_P2
2021/07/28 00:00:00;;;;;;;;;;;;;;;24.65;57.57;99757.13;2067919;28;19920;-71
2021/07/28 00:01:00;;;;;;;;;;;;;;;24.66;57.57;99755.22;2065796;28;20775;-70
2021/07/28 00:02:00;;;;;;;;;;;;;;;24.65;57.41;99753.53;2064118;28;20004;-71
2021/07/28 00:03:01;;;;;;;;;;;;;;;24.65;57.63;99748.88;2066734;28;20343;-70
2021/07/28 00:04:01;;;;;;;;;;;;;;;24.65;57.41;99746.09;2068116;28;19921;-70
2021/07/28 00:05:02;;;;;;;;;;;;;;;24.66;57.54;99750.56;2067171;28;19917;-71
2021/07/28 00:06:02;;;;;;;;;;;;;;;24.66;57.49;99750.56;2067625;28;19928;-71
2021/07/28 00:07:02;;;;;;;;;;;;;;;24.65;57.46;99743.34;2065444;28;20427;-70
2021/07/28 00:08:03;;;;;;;;;;;;;;;24.66;57.57;99749.72;2064293;28;19921;-71
2021/07/28 00:09:03;;;;;;;;;;;;;;;24.66;57.57;99747.81;2062579;28;20324;-71
2021/07/28 00:10:04;;;;;;;;;;;;;;;24.66;57.49;99738.69;2068170;28;19951;-71
2021/07/28 00:11:10;;;;;;;;;;;;;;;24.65;57.38;99732.31;2064269;28;19932;-71
2021/07/28 00:12:10;;;;;;;;;;;;;;;24.65;57.45;99726.81;2061695;28;19975;-71
2021/07/28 00:13:10;;;;;;;;;;;;;;;24.65;57.43;99721.31;2065377;28;19919;-70
2021/07/28 00:14:11;;;;;;;;;;;;;;;24.64;57.54;99727.00;2068604;28;19963;-71
2021/07/28 00:15:12;;;;;;;;;;;;;;;24.63;57.54;99723.41;2066388;28;19928;-70
2021/07/28 00:16:13;;;;;;;;;;;;;;;24.64;57.42;99730.59;2066468;28;20591;-71
2021/07/28 00:17:14;;;;;;;;;;;;;;;24.65;57.54;99725.97;2068068;28;19913;-71
2021/07/28 00:18:27;;;;;;;;;;;;;;;24.64;57.46;99725.09;2067152;28;19928;-71
2021/07/28 00:19:32;;;;;;;;;;;;;;;24.64;57.48;99730.59;2068199;28;19952;-71
2021/07/28 00:24:10;;;;;;;;;;;;;;;24.64;57.59;99741.63;2067292;28;19917;-71
2021/07/28 00:25:11;;;;;;;;;;;;;;;24.64;57.54;99746.28;2065246;28;19917;-71
2021/07/28 00:26:11;;;;;;;;;;;;;;;24.64;57.58;99749.03;2068591;28;19924;-71
2021/07/28 00:27:12;;;;;;;;;;;;;;;24.63;57.67;99748.19;2067211;28;19917;-71
2021/07/28 00:28:12;;;;;;;;;;;;;;;24.64;57.56;99744.38;2067211;28;19929;-71
2021/07/28 00:29:12;;;;;;;;;;;;;;;24.63;57.38;99745.44;2066504;28;19961;-71
2021/07/28 00:30:13;;;;;;;;;;;;;;;24.63;57.54;99750.94;2069497;28;19925;-70
2021/07/28 00:31:13;;;;;;;;;;;;;;;24.64;57.50;99743.53;2067096;28;19944;-71
2021/07/28 00:32:13;;;;;;;;;;;;;;;24.62;57.48;99741.00;2067573;28;19994;-71
2021/07/28 00:33:13;;;;;;;;;;;;;;;24.62;57.50;99729.97;2067930;28;20430;-71
2021/07/28 00:34:14;;;;;;;;;;;;;;;24.63;57.66;99734.41;2067114;28;20474;-71
2021/07/28 00:35:14;;;;;;;;;;;;;;;24.63;57.55;99734.41;2068113;28;20385;-71
2021/07/28 00:36:14;;;;;;;;;;;;;;;24.62;57.51;99727.22;2066880;28;20018;-71
2021/07/28 00:37:15;;;;;;;;;;;;;;;24.62;57.59;99729.97;2068751;28;19967;-71
2021/07/28 00:38:15;;;;;;;;;;;;;;;24.62;57.59;99727.22;2066293;28;19957;-71
2021/07/28 00:39:15;;;;;;;;;;;;;;;24.61;57.46;99725.50;2052710;28;20585;-71
2021/07/28 00:40:16;;;;;;;;;;;;;;;24.61;57.59;99725.50;2058507;28;20731;-71
2021/07/28 00:41:16;;;;;;;;;;;;;;;24.61;57.56;99719.97;2067033;28;20731;-70
2021/07/28 00:42:16;;;;;;;;;;;;;;;24.62;57.63;99718.94;2067876;28;19971;-71
2021/07/28 00:43:21;;;;;;;;;;;;;;;24.62;57.54;99718.94;2066916;28;19912;-71
2021/07/28 00:44:22;;;;;;;;;;;;;;;24.61;57.48;99719.97;2065730;28;19924;-70
2021/07/28 00:45:22;;;;;;;;;;;;;;;24.61;57.67;99725.50;2067186;28;20368;-71
2021/07/28 00:46:22;;;;;;;;;;;;;;;24.62;57.48;99726.34;2063758;28;19921;-71
2021/07/28 00:47:23;;;;;;;;;;;;;;;24.61;57.70;99733.75;2066909;28;19956;-71
2021/07/28 00:48:23;;;;;;;;;;;;;;;24.61;57.54;99742.03;2066939;28;19929;-71
2021/07/28 00:49:23;;;;;;;;;;;;;;;24.62;57.66;99737.34;2069631;28;20445;-70
2021/07/28 00:50:24;;;;;;;;;;;;;;;24.61;57.61;99736.50;2067886;28;20303;-71
2021/07/28 00:51:24;;;;;;;;;;;;;;;24.62;57.76;99738.25;2065952;28;20345;-71
2021/07/28 00:52:25;;;;;;;;;;;;;;;24.62;57.69;99738.25;2070396;28;20336;-71
2021/07/28 00:53:25;;;;;;;;;;;;;;;24.62;57.71;99732.72;2066350;28;19917;-70
2021/07/28 00:54:26;;;;;;;;;;;;;;;24.61;57.63;99728.25;2068605;28;20013;-70
2021/07/28 00:55:26;;;;;;;;;;;;;;;24.62;57.66;99735.47;2057091;28;19944;-71
2021/07/28 00:56:27;;;;;;;;;;;;;;;24.62;57.63;99732.72;2065459;28;19921;-71
2021/07/28 00:57:28;;;;;;;;;;;;;;;24.62;57.61;99729.97;2059729;28;19924;-70
2021/07/28 00:58:29;;;;;;;;;;;;;;;24.61;57.63;99733.75;2066494;28;19952;-71
2021/07/28 00:59:29;;;;;;;;;;;;;;;24.62;57.71;99737.34;2068087;28;20634;-71
2021/07/28 01:00:30;;;;;;;;;;;;;;;24.61;57.62;99731.00;2066652;28;19917;-71
2021/07/28 01:01:30;;;;;;;;;;;;;;;24.62;57.65;99727.22;2066754;28;19983;-71
2021/07/28 01:02:30;;;;;;;;;;;;;;;24.61;57.66;99733.75;2065493;28;20027;-71
2021/07/28 01:03:31;;;;;;;;;;;;;;;24.60;57.64;99734.81;2057322;28;19921;-71
2021/07/28 01:04:31;;;;;;;;;;;;;;;24.61;57.71;99733.75;2066813;28;19951;-71
2021/07/28 01:05:31;;;;;;;;;;;;;;;24.62;57.69;99737.34;2066507;28;19939;-71
2021/07/28 01:06:32;;;;;;;;;;;;;;;24.62;57.65;99735.47;2067914;28;19917;-71
2021/07/28 01:07:32;;;;;;;;;;;;;;;24.60;57.78;99723.78;2066464;28;19964;-71
2021/07/28 01:08:33;;;;;;;;;;;;;;;24.62;57.52;99732.72;2066880;28;19921;-71
2021/07/28 01:09:33;;;;;;;;;;;;;;;24.60;57.67;99727.41;2067803;28;19924;-71
2021/07/28 01:10:34;;;;;;;;;;;;;;;24.61;57.64;99736.50;2065586;28;20236;-71
2021/07/28 01:11:35;;;;;;;;;;;;;;;24.61;57.64;99736.50;2066337;28;19925;-71
2021/07/28 01:12:42;;;;;;;;;;;;;;;24.61;57.66;99747.53;2066114;28;19913;-71
2021/07/28 01:13:42;;;;;;;;;;;;;;;24.60;57.69;99743.09;2065491;28;20360;-71
2021/07/28 01:14:44;;;;;;;;;;;;;;;24.61;57.64;99747.53;2067727;28;19975;-71
2021/07/28 01:15:44;;;;;;;;;;;;;;;24.61;57.64;99739.25;2067351;28;19921;-71
2021/07/28 01:16:45;;;;;;;;;;;;;;;24.60;57.82;99741.19;2067609;28;20616;-71
2021/07/28 01:17:46;;;;;;;;;;;;;;;24.59;57.72;99739.44;2066422;28;20743;-71
2021/07/28 01:18:46;;;;;;;;;;;;;;;24.60;57.69;99748.59;2067670;28;19917;-71
2021/07/28 01:19:51;;;;;;;;;;;;;;;24.60;57.73;99743.09;2067318;28;19914;-71
2021/07/28 01:20:51;;;;;;;;;;;;;;;24.60;57.80;99737.56;2066214;28;19960;-71
2021/07/28 01:21:52;;;;;;;;;;;;;;;24.60;57.76;99745.84;2066401;28;19916;-71
2021/07/28 01:22:54;;;;;;;;;;;;;;;24.59;57.64;99739.44;2066660;28;19917;-70
2021/07/28 01:23:55;;;;;;;;;;;;;;;24.59;57.75;99741.34;2067758;28;19916;-71
2021/07/28 01:24:55;;;;;;;;;;;;;;;24.60;57.78;99740.34;2067586;28;20414;-71
2021/07/28 01:25:56;;;;;;;;;;;;;;;24.60;57.71;99740.34;2065754;28;19932;-70
2021/07/28 01:26:59;;;;;;;;;;;;;;;24.60;57.80;99737.56;2066100;28;20035;-69
2021/07/28 01:28:00;;;;;;;;;;;;;;;24.59;57.80;99744.97;2065986;28;20793;-71
2021/07/28 01:29:01;;;;;;;;;;;;;;;24.60;57.74;99746.69;2066637;28;20402;-71
2021/07/28 01:30:01;;;;;;;;;;;;;;;24.60;57.84;99752.19;2067227;28;20314;-70
2021/07/28 01:31:05;;;;;;;;;;;;;;;24.60;57.70;99745.84;2066846;28;19956;-70
2021/07/28 01:32:05;;;;;;;;;;;;;;;24.60;57.80;99762.38;2066978;28;20020;-71
2021/07/28 01:33:06;;;;;;;;;;;;;;;24.60;57.72;99770.63;2066633;28;19917;-70
2021/07/28 01:34:07;;;;;;;;;;;;;;;24.59;57.76;99774.44;2066328;28;19917;-70
2021/07/28 01:35:08;;;;;;;;;;;;;;;24.60;57.58;99778.91;2067801;28;19944;-70
2021/07/28 01:36:10;;;;;;;;;;;;;;;24.59;57.78;99782.69;2062966;28;20416;-71
2021/07/28 01:37:12;;;;;;;;;;;;;;;24.60;57.85;99785.25;2066286;28;20388;-70
2021/07/28 01:38:12;;;;;;;;;;;;;;;24.60;57.76;99789.94;2068254;28;19924;-71
2021/07/28 01:39:13;;;;;;;;;;;;;;;24.60;57.76;99778.91;2064924;28;19945;-71
2021/07/28 01:40:13;;;;;;;;;;;;;;;24.60;57.83;99779.75;2067687;28;19913;-71
2021/07/28 01:41:14;;;;;;;;;;;;;;;24.60;57.75;99767.88;2065732;28;19975;-71
2021/07/28 01:42:14;;;;;;;;;;;;;;;24.58;57.69;99764.47;2067434;28;19936;-71
2021/07/28 01:43:15;;;;;;;;;;;;;;;24.58;57.69;99754.28;2067069;28;19917;-71
2021/07/28 01:44:15;;;;;;;;;;;;;;;24.59;57.76;99750.47;2066297;28;19944;-70
2021/07/28 01:45:16;;;;;;;;;;;;;;;24.59;57.80;99757.88;2066890;28;20001;-71
2021/07/28 01:46:18;;;;;;;;;;;;;;;24.58;57.77;99756.19;2067498;28;19967;-71
2021/07/28 01:47:18;;;;;;;;;;;;;;;24.59;57.79;99766.16;2066720;28;19921;-70
2021/07/28 01:48:18;;;;;;;;;;;;;;;24.59;57.93;99771.66;2065466;28;19921;-71
2021/07/28 01:49:19;;;;;;;;;;;;;;;24.58;57.62;99764.47;2066985;28;20007;-70
2021/07/28 01:50:19;;;;;;;;;;;;;;;24.57;57.90;99746.19;2068040;28;20376;-70
2021/07/28 01:51:20;;;;;;;;;;;;;;;24.58;57.80;99742.41;2067099;28;20700;-70
2021/07/28 01:52:20;;;;;;;;;;;;;;;24.58;57.73;99742.41;2066812;28;19932;-70
2021/07/28 01:53:21;;;;;;;;;;;;;;;24.57;57.85;99740.69;2066338;28;19964;-71
2021/07/28 01:54:21;;;;;;;;;;;;;;;24.58;57.81;99736.91;2067580;28;20613;-70
2021/07/28 01:55:22;;;;;;;;;;;;;;;24.58;57.86;99742.41;2065798;28;19917;-70
2021/07/28 01:56:22;;;;;;;;;;;;;;;24.58;57.84;99736.91;2066281;28;19992;-70
2021/07/28 01:57:23;;;;;;;;;;;;;;;24.57;58.05;99743.44;2064165;28;19956;-71
2021/07/28 01:58:23;;;;;;;;;;;;;;;24.56;57.95;99733.50;2067558;28;21071;-70
2021/07/28 01:59:25;;;;;;;;;;;;;;;24.56;57.74;99733.50;2067372;28;20481;-71
2021/07/28 02:00:26;;;;;;;;;;;;;;;24.57;57.73;99736.06;2066402;28;19913;-71
2021/07/28 02:01:26;;;;;;;;;;;;;;;24.58;57.79;99734.16;2068109;28;20451;-71
2021/07/28 02:02:31;;;;;;;;;;;;;;;24.57;57.86;99730.56;2063663;28;19927;-71
2021/07/28 02:03:31;;;;;;;;;;;;;;;24.57;57.89;99726.91;2067355;28;20013;-70
2021/07/28 02:04:31;;;;;;;;;;;;;;;24.57;57.88;99724.16;2065543;28;19917;-71
2021/07/28 02:05:38;;;;;;;;;;;;;;;24.57;57.87;99718.66;2068008;28;20020;-70
2021/07/28 02:06:38;;;;;;;;;;;;;;;24.56;57.79;99712.28;2068053;28;19944;-70
2021/07/28 02:07:39;;;;;;;;;;;;;;;24.57;57.85;99711.25;2065299;28;19960;-70
2021/07/28 02:08:39;;;;;;;;;;;;;;;24.56;57.94;99716.97;2066679;28;19928;-71
2021/07/28 02:09:39;;;;;;;;;;;;;;;24.57;57.94;99707.63;2065460;28;19999;-71
2021/07/28 02:10:42;;;;;;;;;;;;;;;24.56;57.88;99714.19;2067275;28;19939;-70
2021/07/28 02:11:42;;;;;;;;;;;;;;;24.56;57.94;99711.44;2068919;28;20030;-71
2021/07/28 02:12:43;;;;;;;;;;;;;;;24.57;57.90;99721.41;2066725;28;19913;-71
2021/07/28 02:13:43;;;;;;;;;;;;;;;24.54;57.92;99714.38;2066257;28;20041;-70
2021/07/28 02:14:43;;;;;;;;;;;;;;;24.55;57.87;99718.88;2067358;28;19917;-71
2021/07/28 02:15:44;;;;;;;;;;;;;;;24.56;58.03;99717.81;2068634;28;19928;-70
2021/07/28 02:16:44;;;;;;;;;;;;;;;24.56;57.91;99714.19;2066367;28;19917;-71
2021/07/28 02:17:45;;;;;;;;;;;;;;;24.57;58.01;99707.63;2065529;28;19933;-70
2021/07/28 02:18:45;;;;;;;;;;;;;;;24.56;57.92;99705.94;2067480;28;19905;-71
2021/07/28 02:19:45;;;;;;;;;;;;;;;24.55;58.00;99701.50;2066870;28;20020;-71
2021/07/28 02:20:45;;;;;;;;;;;;;;;24.55;57.97;99702.34;2067427;28;20281;-71
2021/07/28 02:21:46;;;;;;;;;;;;;;;24.55;57.99;99707.00;2066087;28;19971;-71
2021/07/28 02:22:46;;;;;;;;;;;;;;;24.55;57.95;99716.09;2065492;28;19917;-71
2021/07/28 02:23:46;;;;;;;;;;;;;;;24.56;58.12;99716.97;2067248;28;20003;-71
2021/07/28 02:24:47;;;;;;;;;;;;;;;24.55;57.99;99715.25;2066187;28;19927;-71
2021/07/28 02:25:47;;;;;;;;;;;;;;;24.55;57.90;99718.03;2067454;28;19924;-71
2021/07/28 02:26:47;;;;;;;;;;;;;;;24.56;57.94;99717.81;2067213;28;19943;-71
2021/07/28 02:27:48;;;;;;;;;;;;;;;24.55;58.05;99709.75;2065929;28;20443;-71
2021/07/28 02:28:48;;;;;;;;;;;;;;;24.54;58.01;99706.13;2066258;28;19953;-71
2021/07/28 02:29:49;;;;;;;;;;;;;;;24.55;57.99;99707.00;2067951;28;20007;-71
2021/07/28 02:30:49;;;;;;;;;;;;;;;24.54;58.09;99699.75;2067786;28;19959;-71
2021/07/28 02:31:50;;;;;;;;;;;;;;;24.54;57.99;99697.84;2069401;28;19905;-70
2021/07/28 02:32:50;;;;;;;;;;;;;;;24.55;57.95;99693.22;2068343;28;19951;-70
2021/07/28 02:33:50;;;;;;;;;;;;;;;24.55;58.02;99693.22;2067735;28;19936;-71
2021/07/28 02:34:51;;;;;;;;;;;;;;;24.54;58.01;99686.84;2069487;28;19952;-71
2021/07/28 02:35:51;;;;;;;;;;;;;;;24.56;58.02;99694.91;2068066;28;19916;-71
2021/07/28 02:36:51;;;;;;;;;;;;;;;24.55;57.91;99693.22;2068814;28;19920;-70
2021/07/28 02:37:52;;;;;;;;;;;;;;;24.55;57.94;99694.06;2066200;28;19909;-70
2021/07/28 02:38:52;;;;;;;;;;;;;;;24.55;57.77;99693.22;2068425;28;19915;-71
2021/07/28 02:39:52;;;;;;;;;;;;;;;24.54;58.15;99702.50;2068940;28;19910;-70
2021/07/28 02:40:52;;;;;;;;;;;;;;;24.55;58.10;99709.75;2067085;28;19944;-71
2021/07/28 02:41:53;;;;;;;;;;;;;;;24.54;57.93;99708.03;2069356;28;20669;-71
2021/07/28 02:42:53;;;;;;;;;;;;;;;24.54;57.98;99719.03;2068635;28;19996;-71
2021/07/28 02:43:53;;;;;;;;;;;;;;;24.54;57.96;99727.31;2067936;28;19921;-69
2021/07/28 02:44:54;;;;;;;;;;;;;;;24.53;58.17;99731.13;2068030;28;20681;-70
2021/07/28 02:45:54;;;;;;;;;;;;;;;24.55;58.04;99740.06;2065576;28;19932;-69
2021/07/28 02:46:54;;;;;;;;;;;;;;;24.54;58.07;99746.59;2069190;28;20679;-69
2021/07/28 02:47:54;;;;;;;;;;;;;;;24.54;58.22;99749.34;2065992;28;20373;-70
2021/07/28 02:48:55;;;;;;;;;;;;;;;24.54;58.05;99752.09;2066124;28;20006;-70
2021/07/28 02:49:55;;;;;;;;;;;;;;;24.55;58.08;99759.34;2066868;28;20588;-70
2021/07/28 02:50:57;;;;;;;;;;;;;;;24.53;58.11;99755.94;2065683;28;20093;-70
2021/07/28 02:51:57;;;;;;;;;;;;;;;24.54;58.13;99752.09;2068844;28;19975;-70
2021/07/28 02:52:58;;;;;;;;;;;;;;;24.54;58.06;99757.63;2066922;28;19914;-69
2021/07/28 02:53:58;;;;;;;;;;;;;;;24.54;58.11;99763.97;2068710;28;19917;-70
2021/07/28 02:55:05;;;;;;;;;;;;;;;24.54;58.05;99752.97;2068727;28;20311;-70
2021/07/28 02:56:05;;;;;;;;;;;;;;;24.54;58.13;99757.63;2070389;28;19967;-70
2021/07/28 02:57:06;;;;;;;;;;;;;;;24.54;58.14;99752.09;2067325;28;19916;-70
2021/07/28 02:58:06;;;;;;;;;;;;;;;24.54;58.17;99749.34;2067959;28;19968;-70
2021/07/28 02:59:06;;;;;;;;;;;;;;;24.54;58.00;99752.09;2068689;28;19963;-71
2021/07/28 03:00:07;;;;;;;;;;;;;;;24.53;58.24;99750.41;2068586;28;19910;-70
2021/07/28 03:01:08;;;;;;;;;;;;;;;24.53;58.13;99750.41;2067415;28;19917;-70
2021/07/28 03:02:08;;;;;;;;;;;;;;;24.52;58.20;99737.66;2068030;28;20427;-70
2021/07/28 03:03:08;;;;;;;;;;;;;;;24.51;58.19;99742.34;2068515;28;19952;-70
2021/07/28 03:04:09;;;;;;;;;;;;;;;24.52;58.15;99737.66;2067522;28;20376;-70
2021/07/28 03:05:11;;;;;;;;;;;;;;;24.52;58.23;99729.41;2067644;28;19913;-70
2021/07/28 03:06:11;;;;;;;;;;;;;;;24.51;58.13;99724.94;2066977;28;20039;-70
2021/07/28 03:07:12;;;;;;;;;;;;;;;24.51;58.15;99728.56;2067563;28;19917;-70
2021/07/28 03:08:12;;;;;;;;;;;;;;;24.54;58.07;99732.81;2069201;28;19931;-70
2021/07/28 03:09:13;;;;;;;;;;;;;;;24.53;58.01;99726.47;2068389;28;19917;-70
2021/07/28 03:10:13;;;;;;;;;;;;;;;24.52;58.23;99724.78;2069397;28;20303;-70
2021/07/28 03:11:13;;;;;;;;;;;;;;;24.52;58.08;99721.13;2067895;28;19917;-70
2021/07/28 03:12:14;;;;;;;;;;;;;;;24.51;58.18;99717.53;2066886;28;19967;-70
2021/07/28 03:13:14;;;;;;;;;;;;;;;24.51;58.18;99714.78;2067246;28;19928;-70
2021/07/28 03:14:14;;;;;;;;;;;;;;;24.52;58.14;99715.63;2069511;28;19933;-70
2021/07/28 03:15:15;;;;;;;;;;;;;;;24.51;58.11;99713.94;2067009;28;20335;-70
2021/07/28 03:16:15;;;;;;;;;;;;;;;24.51;58.24;99723.03;2066738;28;19920;-70
2021/07/28 03:17:17;;;;;;;;;;;;;;;24.51;58.22;99713.94;2068421;28;19917;-69
2021/07/28 03:18:17;;;;;;;;;;;;;;;24.51;58.19;99722.19;2069165;28;19999;-69
2021/07/28 03:19:17;;;;;;;;;;;;;;;24.51;58.07;99719.44;2068310;28;19917;-69
2021/07/28 03:20:18;;;;;;;;;;;;;;;24.50;58.22;99723.22;2067923;28;20023;-69
2021/07/28 03:21:18;;;;;;;;;;;;;;;24.50;58.27;99723.22;2065953;28;19917;-70
2021/07/28 03:22:18;;;;;;;;;;;;;;;24.51;58.22;99724.94;2068730;28;19924;-70
2021/07/28 03:23:19;;;;;;;;;;;;;;;24.51;58.18;99716.69;2067035;28;20522;-70
2021/07/28 03:24:19;;;;;;;;;;;;;;;24.50;58.23;99721.34;2068566;28;20836;-70
2021/07/28 03:25:19;;;;;;;;;;;;;;;24.51;58.04;99720.28;2068761;28;19909;-70
2021/07/28 03:26:20;;;;;;;;;;;;;;;24.52;58.12;99721.13;2067405;28;20377;-70
2021/07/28 03:27:20;;;;;;;;;;;;;;;24.51;58.11;99730.47;2066690;28;20391;-70
2021/07/28 03:28:20;;;;;;;;;;;;;;;24.51;58.21;99735.97;2067046;28;19946;-70
2021/07/28 03:29:22;;;;;;;;;;;;;;;24.51;58.17;99741.50;2067929;28;19917;-70
2021/07/28 03:30:23;;;;;;;;;;;;;;;24.50;58.17;99745.28;2067404;28;19917;-70
2021/07/28 03:31:23;;;;;;;;;;;;;;;24.49;58.27;99738.91;2067419;28;19913;-70
2021/07/28 03:32:23;;;;;;;;;;;;;;;24.49;58.12;99732.56;2066652;28;19917;-69
2021/07/28 03:33:23;;;;;;;;;;;;;;;24.50;58.16;99720.47;2066249;28;19921;-69
2021/07/28 03:34:24;;;;;;;;;;;;;;;24.51;58.33;99719.44;2065955;28;19999;-70
2021/07/28 03:35:24;;;;;;;;;;;;;;;24.50;58.18;99717.72;2067623;28;19921;-70
2021/07/28 03:36:24;;;;;;;;;;;;;;;24.50;58.25;99714.97;2068252;28;20467;-70
2021/07/28 03:37:25;;;;;;;;;;;;;;;24.49;58.39;99716.03;2064981;28;20060;-70
2021/07/28 03:38:25;;;;;;;;;;;;;;;24.49;58.23;99711.38;2063983;28;19922;-70
2021/07/28 03:39:25;;;;;;;;;;;;;;;24.49;58.07;99716.88;2067828;28;20488;-71
2021/07/28 03:40:25;;;;;;;;;;;;;;;24.50;58.10;99712.22;2066052;28;20642;-70
2021/07/28 03:41:26;;;;;;;;;;;;;;;24.49;58.19;99719.63;2064683;28;20736;-70
2021/07/28 03:42:27;;;;;;;;;;;;;;;24.50;58.27;99729.63;2068443;28;19960;-71
2021/07/28 03:43:28;;;;;;;;;;;;;;;24.51;58.32;99724.94;2067609;28;20356;-70
2021/07/28 03:44:28;;;;;;;;;;;;;;;24.50;58.14;99728.75;2066068;28;19966;-71
2021/07/28 03:45:28;;;;;;;;;;;;;;;24.49;58.29;99710.50;2066848;28;20502;-70
2021/07/28 03:46:29;;;;;;;;;;;;;;;24.50;58.34;99706.69;2068707;28;19979;-71
2021/07/28 03:47:29;;;;;;;;;;;;;;;24.49;58.31;99707.75;2068015;28;20675;-70
2021/07/28 03:48:32;;;;;;;;;;;;;;;24.49;58.41;99705.00;2066637;28;19927;-71
2021/07/28 03:49:32;;;;;;;;;;;;;;;24.48;58.29;99700.56;2068802;28;19905;-70
2021/07/28 03:50:33;;;;;;;;;;;;;;;24.49;58.21;99696.75;2067737;28;19967;-71
2021/07/28 03:51:33;;;;;;;;;;;;;;;24.49;58.13;99693.97;2070176;28;20418;-70
2021/07/28 03:52:33;;;;;;;;;;;;;;;24.49;58.24;99689.31;2066627;28;19909;-71
2021/07/28 03:53:35;;;;;;;;;;;;;;;24.49;58.21;99685.72;2068647;28;19925;-71
2021/07/28 03:54:35;;;;;;;;;;;;;;;24.49;58.17;99688.47;2067263;28;19905;-70
2021/07/28 03:55:35;;;;;;;;;;;;;;;24.49;58.07;99693.97;2065108;28;19928;-70
2021/07/28 03:56:36;;;;;;;;;;;;;;;24.49;58.21;99682.97;2067911;28;19923;-70
2021/07/28 03:57:36;;;;;;;;;;;;;;;24.50;58.24;99688.28;2066977;28;20828;-70
2021/07/28 03:58:36;;;;;;;;;;;;;;;24.49;58.27;99699.50;2068625;28;20412;-70
2021/07/28 03:59:37;;;;;;;;;;;;;;;24.49;58.35;99699.50;2067966;28;19963;-70
2021/07/28 04:00:37;;;;;;;;;;;;;;;24.48;58.19;99690.38;2066093;28;19987;-71
2021/07/28 04:01:38;;;;;;;;;;;;;;;24.49;58.28;99688.47;2065953;28;19996;-70
2021/07/28 04:02:38;;;;;;;;;;;;;;;24.49;58.15;99682.97;2067605;28;19920;-70
2021/07/28 04:03:38;;;;;;;;;;;;;;;24.48;58.12;99682.13;2064010;28;19925;-71
2021/07/28 04:04:39;;;;;;;;;;;;;;;24.48;58.35;99686.78;2062970;28;19917;-70
2021/07/28 04:05:39;;;;;;;;;;;;;;;24.48;58.27;99686.78;2065773;28;20049;-71
2021/07/28 04:06:39;;;;;;;;;;;;;;;24.48;58.22;99681.28;2066238;28;19924;-70
2021/07/28 04:07:40;;;;;;;;;;;;;;;24.48;58.39;99687.63;2067894;28;19917;-71
2021/07/28 04:08:40;;;;;;;;;;;;;;;24.47;58.32;99691.41;2066341;28;19964;-70
2021/07/28 04:09:40;;;;;;;;;;;;;;;24.48;58.13;99703.31;2066987;28;20560;-71
2021/07/28 04:10:41;;;;;;;;;;;;;;;24.49;58.24;99699.50;2066027;28;19913;-70
2021/07/28 04:11:41;;;;;;;;;;;;;;;24.49;58.26;99696.75;2067970;28;19913;-71
2021/07/28 04:12:41;;;;;;;;;;;;;;;24.49;58.28;99693.97;2067184;28;19920;-70
2021/07/28 04:13:42;;;;;;;;;;;;;;;24.48;58.09;99700.56;2066225;28;19928;-70
2021/07/28 04:14:43;;;;;;;;;;;;;;;24.48;58.19;99706.06;2073581;28;19916;-69
2021/07/28 04:15:43;;;;;;;;;;;;;;;24.49;58.23;99705.00;2075840;28;19923;-70
2021/07/28 04:16:43;;;;;;;;;;;;;;;24.48;58.21;99697.81;2068536;28;19909;-69
2021/07/28 04:17:46;;;;;;;;;;;;;;;24.48;58.19;99695.03;2065364;28;20769;-70
2021/07/28 04:18:47;;;;;;;;;;;;;;;24.48;58.25;99706.06;2067900;28;20002;-71
2021/07/28 04:19:50;;;;;;;;;;;;;;;24.47;58.17;99702.44;2068501;28;20532;-71
2021/07/28 04:20:50;;;;;;;;;;;;;;;24.47;58.32;99702.44;2066888;28;20395;-71
2021/07/28 04:21:50;;;;;;;;;;;;;;;24.48;58.22;99700.56;2067683;28;19957;-71
2021/07/28 04:22:51;;;;;;;;;;;;;;;24.47;58.22;99693.31;2068499;28;19932;-71
2021/07/28 04:23:51;;;;;;;;;;;;;;;24.47;58.37;99693.31;2066868;28;19927;-70
2021/07/28 04:24:51;;;;;;;;;;;;;;;24.47;58.29;99693.31;2066822;28;19924;-71
2021/07/28 04:25:52;;;;;;;;;;;;;;;24.47;58.29;99699.69;2063473;28;19923;-70
2021/07/28 04:26:52;;;;;;;;;;;;;;;24.47;58.29;99696.06;2066605;28;19948;-71
2021/07/28 04:27:52;;;;;;;;;;;;;;;24.47;58.22;99702.44;2065645;28;19917;-71
2021/07/28 04:28:53;;;;;;;;;;;;;;;24.47;58.38;99701.59;2064867;28;20400;-71
2021/07/28 04:29:53;;;;;;;;;;;;;;;24.48;58.22;99706.06;2066867;28;19921;-70
2021/07/28 04:30:53;;;;;;;;;;;;;;;24.48;58.31;99708.81;2064660;28;20000;-70
2021/07/28 04:31:53;;;;;;;;;;;;;;;24.47;58.28;99707.09;2067141;28;19932;-70
2021/07/28 04:32:54;;;;;;;;;;;;;;;24.47;58.40;99702.44;2065282;28;19920;-71
2021/07/28 04:33:54;;;;;;;;;;;;;;;24.47;58.34;99702.44;2066022;28;20299;-70
2021/07/28 04:34:54;;;;;;;;;;;;;;;24.47;58.29;99696.06;2066450;28;20284;-71
2021/07/28 04:35:55;;;;;;;;;;;;;;;24.47;58.34;99707.09;2065036;28;20283;-71
2021/07/28 04:36:55;;;;;;;;;;;;;;;24.47;58.37;99704.34;2067324;28;19975;-70
2021/07/28 04:37:55;;;;;;;;;;;;;;;24.46;58.35;99702.66;2065095;28;19921;-71
2021/07/28 04:38:56;;;;;;;;;;;;;;;24.46;58.27;99713.66;2067110;28;19917;-70
2021/07/28 04:40:00;;;;;;;;;;;;;;;24.47;58.40;99712.59;2064657;28;19998;-71
2021/07/28 04:41:01;;;;;;;;;;;;;;;24.46;58.31;99705.41;2065472;28;19920;-71
2021/07/28 04:42:01;;;;;;;;;;;;;;;24.47;58.29;99712.59;2067524;28;20473;-70
2021/07/28 04:43:01;;;;;;;;;;;;;;;24.46;58.37;99710.91;2065435;28;19921;-70
2021/07/28 04:44:02;;;;;;;;;;;;;;;24.46;58.41;99710.91;2067182;28;20020;-70
2021/07/28 04:45:03;;;;;;;;;;;;;;;24.46;58.27;99716.41;2066324;28;20004;-71
2021/07/28 04:46:03;;;;;;;;;;;;;;;24.46;58.33;99711.75;2066214;28;20003;-70
2021/07/28 04:47:04;;;;;;;;;;;;;;;24.45;58.52;99710.03;2068484;28;19910;-70
2021/07/28 04:48:04;;;;;;;;;;;;;;;24.46;58.42;99710.91;2066162;28;19921;-70
2021/07/28 04:49:05;;;;;;;;;;;;;;;24.45;58.29;99714.66;2068205;28;20358;-70
2021/07/28 04:50:06;;;;;;;;;;;;;;;24.45;58.33;99700.88;2066364;28;19963;-70
2021/07/28 04:51:06;;;;;;;;;;;;;;;24.45;58.22;99704.53;2066493;28;20451;-71
2021/07/28 04:52:07;;;;;;;;;;;;;;;24.45;58.29;99707.28;2067814;28;19913;-70
2021/07/28 04:53:07;;;;;;;;;;;;;;;24.46;58.29;99710.91;2066380;28;19924;-71
2021/07/28 04:54:07;;;;;;;;;;;;;;;24.46;58.30;99716.41;2068134;28;20016;-70
2021/07/28 04:55:08;;;;;;;;;;;;;;;24.45;58.55;99712.78;2066657;28;19921;-71
2021/07/28 04:56:08;;;;;;;;;;;;;;;24.46;58.35;99724.69;2066876;28;19983;-71
2021/07/28 04:57:08;;;;;;;;;;;;;;;24.47;58.37;99718.13;2067542;28;20408;-71
2021/07/28 04:58:08;;;;;;;;;;;;;;;24.45;58.33;99726.56;2065405;28;19921;-71
2021/07/28 04:59:09;;;;;;;;;;;;;;;24.45;58.41;99732.06;2066892;28;19917;-71
2021/07/28 05:00:09;;;;;;;;;;;;;;;24.46;58.40;99727.44;2064788;28;19952;-71
2021/07/28 05:01:10;;;;;;;;;;;;;;;24.45;58.59;99733.94;2065397;28;19913;-71
2021/07/28 05:02:10;;;;;;;;;;;;;;;24.45;58.40;99731.19;2066095;28;20544;-70
2021/07/28 05:03:10;;;;;;;;;;;;;;;24.46;58.37;99721.94;2068473;28;20273;-70
2021/07/28 05:04:11;;;;;;;;;;;;;;;24.45;58.37;99737.59;2065277;28;19921;-70
2021/07/28 05:05:11;;;;;;;;;;;;;;;24.46;58.50;99735.72;2068281;28;19909;-70
2021/07/28 05:06:12;;;;;;;;;;;;;;;24.45;58.39;99736.69;2068599;28;19920;-70
2021/07/28 05:07:12;;;;;;;;;;;;;;;24.45;58.52;99750.47;2064799;28;19910;-70
2021/07/28 05:08:12;;;;;;;;;;;;;;;24.45;58.53;99750.47;2060697;28;19948;-70
2021/07/28 05:09:15;;;;;;;;;;;;;;;24.45;58.46;99750.47;2065610;28;20542;-70
2021/07/28 05:10:16;;;;;;;;;;;;;;;24.44;58.45;99746.88;2068038;28;19917;-69
2021/07/28 05:11:16;;;;;;;;;;;;;;;24.46;58.41;99743.97;2067536;28;19963;-70
2021/07/28 05:12:16;;;;;;;;;;;;;;;24.44;58.47;99751.53;2065890;28;20069;-71
2021/07/28 05:13:17;;;;;;;;;;;;;;;24.43;58.43;99750.69;2067584;28;19996;-70
2021/07/28 05:14:17;;;;;;;;;;;;;;;24.44;58.44;99749.63;2064802;28;19924;-71
2021/07/28 05:15:17;;;;;;;;;;;;;;;24.45;58.41;99754.13;2064376;28;19982;-69
2021/07/28 05:16:17;;;;;;;;;;;;;;;24.46;58.25;99749.47;2067459;28;19909;-71
2021/07/28 05:17:20;;;;;;;;;;;;;;;24.45;58.48;99747.72;2066765;28;19921;-70
2021/07/28 05:18:21;;;;;;;;;;;;;;;24.45;58.44;99747.72;2068025;28;19996;-70
2021/07/28 05:19:21;;;;;;;;;;;;;;;24.44;58.37;99749.63;2062986;28;19928;-70